sensor_id;sensor_type;location;lat;lon;timestamp;P1;durP1;ratioP1;P2;durP2;ratioP2
3443;SDS011;1736;52.068;6.968;2024-03-06T00:00:12;28.10;;;20.80;;
3443;SDS011;1736;52.068;6.968;2024-03-06T00:02:38;31.15;;;21.33;;
3443;SDS011;1736;52.068;6.968;2024-03-06T00:05:05;27.50;;;20.38;;
3443;SDS011;1736;52.068;6.968;2024-03-06T00:07:32;29.95;;;21.15;;
3443;SDS011;1736;52.068;6.968;2024-03-06T00:09:59;30.27;;;21.67;;
3443;SDS011;1736;52.068;6.968;2024-03-06T00:12:26;27.60;;;20.35;;
3443;SDS011;1736;52.068;6.968;2024-03-06T00:14:54;28.92;;;20.70;;
3443;SDS011;1736;52.068;6.968;2024-03-06T00:17:20;27.05;;;20.23;;
3443;SDS011;1736;52.068;6.968;2024-03-06T00:19:47;28.38;;;21.30;;
3443;SDS011;1736;52.068;6.968;2024-03-06T00:22:13;29.02;;;21.50;;
3443;SDS011;1736;52.068;6.968;2024-03-06T00:24:40;30.30;;;21.50;;
3443;SDS011;1736;52.068;6.968;2024-03-06T00:27:06;29.48;;;21.42;;
3443;SDS011;1736;52.068;6.968;2024-03-06T00:29:34;28.75;;;20.98;;
3443;SDS011;1736;52.068;6.968;2024-03-06T00:32:04;26.63;;;20.75;;
3443;SDS011;1736;52.068;6.968;2024-03-06T00:34:31;27.83;;;20.83;;
3443;SDS011;1736;52.068;6.968;2024-03-06T00:36:58;26.83;;;20.00;;
3443;SDS011;1736;52.068;6.968;2024-03-06T00:39:26;25.90;;;20.20;;
3443;SDS011;1736;52.068;6.968;2024-03-06T00:41:52;27.07;;;19.53;;
3443;SDS011;1736;52.068;6.968;2024-03-06T00:44:19;28.63;;;20.70;;
3443;SDS011;1736;52.068;6.968;2024-03-06T00:46:46;27.67;;;19.98;;
3443;SDS011;1736;52.068;6.968;2024-03-06T00:49:14;26.48;;;20.60;;
3443;SDS011;1736;52.068;6.968;2024-03-06T00:51:41;27.52;;;20.80;;
3443;SDS011;1736;52.068;6.968;2024-03-06T00:54:07;27.95;;;20.25;;
3443;SDS011;1736;52.068;6.968;2024-03-06T00:56:36;28.77;;;21.03;;
3443;SDS011;1736;52.068;6.968;2024-03-06T00:59:04;27.17;;;21.20;;
3443;SDS011;1736;52.068;6.968;2024-03-06T01:01:31;27.67;;;20.58;;
3443;SDS011;1736;52.068;6.968;2024-03-06T01:03:57;29.83;;;20.88;;
3443;SDS011;1736;52.068;6.968;2024-03-06T01:06:25;32.08;;;22.85;;
3443;SDS011;1736;52.068;6.968;2024-03-06T01:08:52;27.83;;;20.80;;
3443;SDS011;1736;52.068;6.968;2024-03-06T01:11:19;29.90;;;22.43;;
3443;SDS011;1736;52.068;6.968;2024-03-06T01:13:46;28.40;;;21.70;;
3443;SDS011;1736;52.068;6.968;2024-03-06T01:16:13;30.58;;;22.05;;
3443;SDS011;1736;52.068;6.968;2024-03-06T01:18:39;28.40;;;21.88;;
3443;SDS011;1736;52.068;6.968;2024-03-06T01:21:06;27.38;;;20.48;;
3443;SDS011;1736;52.068;6.968;2024-03-06T01:23:34;29.40;;;21.95;;
3443;SDS011;1736;52.068;6.968;2024-03-06T01:26:01;28.10;;;20.70;;
3443;SDS011;1736;52.068;6.968;2024-03-06T01:28:28;28.38;;;21.77;;
3443;SDS011;1736;52.068;6.968;2024-03-06T01:30:54;31.00;;;22.50;;
3443;SDS011;1736;52.068;6.968;2024-03-06T01:33:21;27.20;;;21.05;;
3443;SDS011;1736;52.068;6.968;2024-03-06T01:35:48;29.70;;;22.30;;
3443;SDS011;1736;52.068;6.968;2024-03-06T01:38:14;29.05;;;21.02;;
3443;SDS011;1736;52.068;6.968;2024-03-06T01:40:44;30.17;;;22.75;;
3443;SDS011;1736;52.068;6.968;2024-03-06T01:43:18;29.83;;;22.53;;
3443;SDS011;1736;52.068;6.968;2024-03-06T01:45:47;28.08;;;21.80;;
3443;SDS011;1736;52.068;6.968;2024-03-06T01:48:13;26.90;;;20.60;;
3443;SDS011;1736;52.068;6.968;2024-03-06T01:50:40;28.63;;;20.90;;
3443;SDS011;1736;52.068;6.968;2024-03-06T01:53:07;30.15;;;22.27;;
3443;SDS011;1736;52.068;6.968;2024-03-06T01:55:35;29.27;;;21.80;;
3443;SDS011;1736;52.068;6.968;2024-03-06T01:58:03;31.30;;;23.88;;
3443;SDS011;1736;52.068;6.968;2024-03-06T02:00:31;32.20;;;22.60;;
3443;SDS011;1736;52.068;6.968;2024-03-06T02:02:58;30.08;;;23.05;;
3443;SDS011;1736;52.068;6.968;2024-03-06T02:05:26;29.48;;;22.27;;
3443;SDS011;1736;52.068;6.968;2024-03-06T02:07:54;29.10;;;22.02;;
3443;SDS011;1736;52.068;6.968;2024-03-06T02:10:22;26.40;;;20.30;;
3443;SDS011;1736;52.068;6.968;2024-03-06T02:12:49;27.80;;;22.00;;
3443;SDS011;1736;52.068;6.968;2024-03-06T02:15:19;27.85;;;21.67;;
3443;SDS011;1736;52.068;6.968;2024-03-06T02:17:46;30.40;;;21.60;;
3443;SDS011;1736;52.068;6.968;2024-03-06T02:20:12;29.85;;;22.00;;
3443;SDS011;1736;52.068;6.968;2024-03-06T02:22:42;29.05;;;22.58;;
3443;SDS011;1736;52.068;6.968;2024-03-06T02:25:08;30.23;;;22.50;;
3443;SDS011;1736;52.068;6.968;2024-03-06T02:27:35;31.10;;;22.80;;
3443;SDS011;1736;52.068;6.968;2024-03-06T02:30:02;29.98;;;21.98;;
3443;SDS011;1736;52.068;6.968;2024-03-06T02:32:29;30.00;;;21.33;;
3443;SDS011;1736;52.068;6.968;2024-03-06T02:34:56;31.30;;;22.20;;
3443;SDS011;1736;52.068;6.968;2024-03-06T02:37:23;28.77;;;21.23;;
3443;SDS011;1736;52.068;6.968;2024-03-06T02:39:52;27.98;;;22.15;;
3443;SDS011;1736;52.068;6.968;2024-03-06T02:42:36;33.22;;;23.45;;
3443;SDS011;1736;52.068;6.968;2024-03-06T02:45:20;28.42;;;21.00;;
3443;SDS011;1736;52.068;6.968;2024-03-06T02:47:46;31.55;;;22.25;;
3443;SDS011;1736;52.068;6.968;2024-03-06T02:50:13;29.38;;;22.50;;
3443;SDS011;1736;52.068;6.968;2024-03-06T02:52:40;29.60;;;22.17;;
3443;SDS011;1736;52.068;6.968;2024-03-06T02:55:08;26.85;;;19.80;;
3443;SDS011;1736;52.068;6.968;2024-03-06T02:57:35;30.00;;;22.50;;
3443;SDS011;1736;52.068;6.968;2024-03-06T03:00:03;28.90;;;22.05;;
3443;SDS011;1736;52.068;6.968;2024-03-06T03:02:30;30.58;;;22.15;;
3443;SDS011;1736;52.068;6.968;2024-03-06T03:04:57;28.23;;;21.40;;
3443;SDS011;1736;52.068;6.968;2024-03-06T03:07:24;29.85;;;22.83;;
3443;SDS011;1736;52.068;6.968;2024-03-06T03:09:50;30.73;;;22.80;;
3443;SDS011;1736;52.068;6.968;2024-03-06T03:12:18;33.38;;;23.40;;
3443;SDS011;1736;52.068;6.968;2024-03-06T03:14:45;31.17;;;22.10;;
3443;SDS011;1736;52.068;6.968;2024-03-06T03:17:11;30.03;;;22.80;;
3443;SDS011;1736;52.068;6.968;2024-03-06T03:19:40;34.00;;;24.83;;
3443;SDS011;1736;52.068;6.968;2024-03-06T03:22:06;31.92;;;22.90;;
3443;SDS011;1736;52.068;6.968;2024-03-06T03:24:34;34.08;;;24.15;;
3443;SDS011;1736;52.068;6.968;2024-03-06T03:27:02;33.33;;;24.43;;
3443;SDS011;1736;52.068;6.968;2024-03-06T03:29:30;31.95;;;23.65;;
3443;SDS011;1736;52.068;6.968;2024-03-06T03:31:56;32.30;;;22.60;;
3443;SDS011;1736;52.068;6.968;2024-03-06T03:34:23;28.55;;;21.75;;
3443;SDS011;1736;52.068;6.968;2024-03-06T03:36:49;31.08;;;23.38;;
3443;SDS011;1736;52.068;6.968;2024-03-06T03:39:16;34.03;;;23.92;;
3443;SDS011;1736;52.068;6.968;2024-03-06T03:41:43;35.93;;;26.53;;
3443;SDS011;1736;52.068;6.968;2024-03-06T03:44:11;34.55;;;24.65;;
3443;SDS011;1736;52.068;6.968;2024-03-06T03:46:39;33.58;;;24.13;;
3443;SDS011;1736;52.068;6.968;2024-03-06T03:49:05;31.83;;;24.52;;
3443;SDS011;1736;52.068;6.968;2024-03-06T03:51:32;33.58;;;24.92;;
3443;SDS011;1736;52.068;6.968;2024-03-06T03:53:58;31.95;;;24.10;;
3443;SDS011;1736;52.068;6.968;2024-03-06T03:56:25;32.53;;;23.80;;
3443;SDS011;1736;52.068;6.968;2024-03-06T03:58:52;37.60;;;27.60;;
3443;SDS011;1736;52.068;6.968;2024-03-06T04:01:19;34.88;;;25.88;;
3443;SDS011;1736;52.068;6.968;2024-03-06T04:03:46;36.50;;;26.25;;
3443;SDS011;1736;52.068;6.968;2024-03-06T04:06:13;36.47;;;26.48;;
3443;SDS011;1736;52.068;6.968;2024-03-06T04:08:40;37.22;;;27.15;;
3443;SDS011;1736;52.068;6.968;2024-03-06T04:11:06;36.53;;;26.15;;
3443;SDS011;1736;52.068;6.968;2024-03-06T04:13:34;32.95;;;24.98;;
3443;SDS011;1736;52.068;6.968;2024-03-06T04:16:02;35.75;;;26.52;;
3443;SDS011;1736;52.068;6.968;2024-03-06T04:18:29;37.15;;;27.92;;
3443;SDS011;1736;52.068;6.968;2024-03-06T04:20:59;38.10;;;27.75;;
3443;SDS011;1736;52.068;6.968;2024-03-06T04:23:29;37.15;;;27.05;;
3443;SDS011;1736;52.068;6.968;2024-03-06T04:25:56;38.50;;;28.77;;
3443;SDS011;1736;52.068;6.968;2024-03-06T04:28:23;40.58;;;28.80;;
3443;SDS011;1736;52.068;6.968;2024-03-06T04:30:49;35.22;;;26.35;;
3443;SDS011;1736;52.068;6.968;2024-03-06T04:33:16;36.70;;;26.52;;
3443;SDS011;1736;52.068;6.968;2024-03-06T04:35:42;39.60;;;29.08;;
3443;SDS011;1736;52.068;6.968;2024-03-06T04:38:10;37.57;;;27.03;;
3443;SDS011;1736;52.068;6.968;2024-03-06T04:40:37;40.80;;;28.60;;
3443;SDS011;1736;52.068;6.968;2024-03-06T04:43:04;43.03;;;30.15;;
3443;SDS011;1736;52.068;6.968;2024-03-06T04:45:31;46.83;;;31.58;;
3443;SDS011;1736;52.068;6.968;2024-03-06T04:58:04;39.40;;;28.63;;
3443;SDS011;1736;52.068;6.968;2024-03-06T05:00:31;45.43;;;32.60;;
3443;SDS011;1736;52.068;6.968;2024-03-06T05:02:58;46.20;;;31.90;;
3443;SDS011;1736;52.068;6.968;2024-03-06T05:05:24;45.65;;;31.83;;
3443;SDS011;1736;52.068;6.968;2024-03-06T05:07:52;48.00;;;31.50;;
3443;SDS011;1736;52.068;6.968;2024-03-06T05:10:18;44.13;;;30.10;;
3443;SDS011;1736;52.068;6.968;2024-03-06T05:12:45;43.95;;;30.10;;
3443;SDS011;1736;52.068;6.968;2024-03-06T05:15:13;40.55;;;28.55;;
3443;SDS011;1736;52.068;6.968;2024-03-06T05:17:39;39.80;;;28.02;;
3443;SDS011;1736;52.068;6.968;2024-03-06T05:20:06;38.55;;;27.85;;
3443;SDS011;1736;52.068;6.968;2024-03-06T05:22:33;37.13;;;27.40;;
3443;SDS011;1736;52.068;6.968;2024-03-06T05:25:00;42.00;;;30.40;;
3443;SDS011;1736;52.068;6.968;2024-03-06T05:27:29;48.03;;;31.73;;
3443;SDS011;1736;52.068;6.968;2024-03-06T05:29:55;45.20;;;32.23;;
3443;SDS011;1736;52.068;6.968;2024-03-06T05:32:23;41.58;;;31.38;;
3443;SDS011;1736;52.068;6.968;2024-03-06T05:34:50;44.70;;;31.48;;
3443;SDS011;1736;52.068;6.968;2024-03-06T05:37:16;45.20;;;32.00;;
3443;SDS011;1736;52.068;6.968;2024-03-06T05:39:44;43.85;;;31.25;;
3443;SDS011;1736;52.068;6.968;2024-03-06T05:42:10;44.95;;;31.10;;
3443;SDS011;1736;52.068;6.968;2024-03-06T05:44:37;45.83;;;32.10;;
3443;SDS011;1736;52.068;6.968;2024-03-06T05:47:04;45.28;;;31.92;;
3443;SDS011;1736;52.068;6.968;2024-03-06T05:49:33;42.88;;;30.42;;
3443;SDS011;1736;52.068;6.968;2024-03-06T05:52:00;50.05;;;32.33;;
3443;SDS011;1736;52.068;6.968;2024-03-06T05:54:27;42.75;;;28.92;;
3443;SDS011;1736;52.068;6.968;2024-03-06T05:56:58;42.35;;;29.55;;
3443;SDS011;1736;52.068;6.968;2024-03-06T05:59:25;44.40;;;30.20;;
3443;SDS011;1736;52.068;6.968;2024-03-06T06:01:52;42.85;;;29.08;;
3443;SDS011;1736;52.068;6.968;2024-03-06T06:04:19;44.40;;;32.25;;
3443;SDS011;1736;52.068;6.968;2024-03-06T06:06:48;40.78;;;30.45;;
3443;SDS011;1736;52.068;6.968;2024-03-06T06:09:15;39.60;;;27.80;;
3443;SDS011;1736;52.068;6.968;2024-03-06T06:11:42;38.50;;;28.77;;
3443;SDS011;1736;52.068;6.968;2024-03-06T06:14:09;40.50;;;28.77;;
3443;SDS011;1736;52.068;6.968;2024-03-06T06:16:36;42.30;;;29.52;;
3443;SDS011;1736;52.068;6.968;2024-03-06T06:19:03;40.05;;;28.23;;
3443;SDS011;1736;52.068;6.968;2024-03-06T06:21:30;42.97;;;30.02;;
3443;SDS011;1736;52.068;6.968;2024-03-06T06:23:58;45.47;;;32.47;;
3443;SDS011;1736;52.068;6.968;2024-03-06T06:26:25;46.88;;;30.48;;
3443;SDS011;1736;52.068;6.968;2024-03-06T06:28:51;45.95;;;31.70;;
3443;SDS011;1736;52.068;6.968;2024-03-06T06:31:18;44.25;;;30.58;;
3443;SDS011;1736;52.068;6.968;2024-03-06T06:33:45;42.17;;;30.45;;
3443;SDS011;1736;52.068;6.968;2024-03-06T06:36:12;41.65;;;29.85;;
3443;SDS011;1736;52.068;6.968;2024-03-06T06:38:39;44.33;;;31.27;;
3443;SDS011;1736;52.068;6.968;2024-03-06T06:41:07;42.47;;;31.38;;
3443;SDS011;1736;52.068;6.968;2024-03-06T06:43:34;43.42;;;30.17;;
3443;SDS011;1736;52.068;6.968;2024-03-06T06:46:00;43.70;;;30.30;;
3443;SDS011;1736;52.068;6.968;2024-03-06T06:55:13;41.88;;;29.67;;
3443;SDS011;1736;52.068;6.968;2024-03-06T06:57:42;40.17;;;28.92;;
3443;SDS011;1736;52.068;6.968;2024-03-06T07:00:09;42.08;;;31.42;;
3443;SDS011;1736;52.068;6.968;2024-03-06T07:02:37;44.47;;;30.30;;
3443;SDS011;1736;52.068;6.968;2024-03-06T07:05:04;44.92;;;31.73;;
3443;SDS011;1736;52.068;6.968;2024-03-06T07:07:30;40.85;;;29.95;;
3443;SDS011;1736;52.068;6.968;2024-03-06T07:09:57;40.70;;;28.52;;
3443;SDS011;1736;52.068;6.968;2024-03-06T07:12:24;41.17;;;28.88;;
3443;SDS011;1736;52.068;6.968;2024-03-06T07:14:52;40.97;;;29.98;;
3443;SDS011;1736;52.068;6.968;2024-03-06T07:17:18;42.38;;;31.00;;
3443;SDS011;1736;52.068;6.968;2024-03-06T07:19:45;42.75;;;30.33;;
3443;SDS011;1736;52.068;6.968;2024-03-06T07:22:11;45.33;;;30.70;;
3443;SDS011;1736;52.068;6.968;2024-03-06T07:24:38;45.60;;;32.28;;
3443;SDS011;1736;52.068;6.968;2024-03-06T07:27:05;46.20;;;32.35;;
3443;SDS011;1736;52.068;6.968;2024-03-06T07:29:33;49.83;;;33.03;;
3443;SDS011;1736;52.068;6.968;2024-03-06T07:32:02;52.53;;;34.37;;
3443;SDS011;1736;52.068;6.968;2024-03-06T07:34:30;55.38;;;35.95;;
3443;SDS011;1736;52.068;6.968;2024-03-06T07:36:57;58.90;;;36.55;;
3443;SDS011;1736;52.068;6.968;2024-03-06T07:39:24;54.23;;;35.83;;
3443;SDS011;1736;52.068;6.968;2024-03-06T07:41:51;54.00;;;35.17;;
3443;SDS011;1736;52.068;6.968;2024-03-06T07:44:19;56.92;;;36.65;;
3443;SDS011;1736;52.068;6.968;2024-03-06T07:46:46;57.10;;;36.70;;
3443;SDS011;1736;52.068;6.968;2024-03-06T07:49:15;57.60;;;36.80;;
3443;SDS011;1736;52.068;6.968;2024-03-06T07:51:41;56.58;;;36.45;;
3443;SDS011;1736;52.068;6.968;2024-03-06T07:54:08;54.97;;;36.40;;
3443;SDS011;1736;52.068;6.968;2024-03-06T07:56:35;56.55;;;35.08;;
3443;SDS011;1736;52.068;6.968;2024-03-06T07:59:01;57.33;;;35.65;;
3443;SDS011;1736;52.068;6.968;2024-03-06T08:01:29;59.90;;;37.75;;
3443;SDS011;1736;52.068;6.968;2024-03-06T08:03:57;54.23;;;34.77;;
3443;SDS011;1736;52.068;6.968;2024-03-06T08:06:24;56.20;;;35.58;;
3443;SDS011;1736;52.068;6.968;2024-03-06T08:08:52;51.27;;;33.27;;
3443;SDS011;1736;52.068;6.968;2024-03-06T08:11:18;48.05;;;32.47;;
3443;SDS011;1736;52.068;6.968;2024-03-06T08:13:46;56.42;;;37.10;;
3443;SDS011;1736;52.068;6.968;2024-03-06T08:16:15;54.57;;;35.20;;
3443;SDS011;1736;52.068;6.968;2024-03-06T08:18:42;53.35;;;34.88;;
3443;SDS011;1736;52.068;6.968;2024-03-06T08:21:09;53.20;;;34.70;;
3443;SDS011;1736;52.068;6.968;2024-03-06T08:23:37;55.70;;;33.85;;
3443;SDS011;1736;52.068;6.968;2024-03-06T08:26:03;48.30;;;31.88;;
3443;SDS011;1736;52.068;6.968;2024-03-06T08:28:30;50.00;;;34.60;;
3443;SDS011;1736;52.068;6.968;2024-03-06T08:30:57;57.67;;;37.28;;
3443;SDS011;1736;52.068;6.968;2024-03-06T08:33:23;51.90;;;32.38;;
3443;SDS011;1736;52.068;6.968;2024-03-06T08:35:50;54.95;;;33.25;;
3443;SDS011;1736;52.068;6.968;2024-03-06T08:38:16;53.90;;;34.50;;
3443;SDS011;1736;52.068;6.968;2024-03-06T08:40:45;54.77;;;35.50;;
3443;SDS011;1736;52.068;6.968;2024-03-06T08:43:11;45.85;;;30.70;;
3443;SDS011;1736;52.068;6.968;2024-03-06T08:45:40;50.67;;;31.88;;
3443;SDS011;1736;52.068;6.968;2024-03-06T08:48:07;49.58;;;32.58;;
3443;SDS011;1736;52.068;6.968;2024-03-06T08:50:34;48.08;;;32.00;;
3443;SDS011;1736;52.068;6.968;2024-03-06T08:53:00;43.92;;;29.13;;
3443;SDS011;1736;52.068;6.968;2024-03-06T08:55:28;40.50;;;27.67;;
3443;SDS011;1736;52.068;6.968;2024-03-06T08:57:56;42.28;;;28.17;;
3443;SDS011;1736;52.068;6.968;2024-03-06T09:00:23;43.15;;;28.25;;
3443;SDS011;1736;52.068;6.968;2024-03-06T09:02:51;38.03;;;25.23;;
3443;SDS011;1736;52.068;6.968;2024-03-06T09:05:18;42.88;;;26.77;;
3443;SDS011;1736;52.068;6.968;2024-03-06T09:07:47;40.42;;;26.10;;
3443;SDS011;1736;52.068;6.968;2024-03-06T09:10:13;36.28;;;24.38;;
3443;SDS011;1736;52.068;6.968;2024-03-06T09:12:40;35.15;;;21.90;;
3443;SDS011;1736;52.068;6.968;2024-03-06T09:15:08;30.60;;;19.55;;
3443;SDS011;1736;52.068;6.968;2024-03-06T09:17:36;33.80;;;22.95;;
3443;SDS011;1736;52.068;6.968;2024-03-06T09:20:03;33.97;;;23.55;;
3443;SDS011;1736;52.068;6.968;2024-03-06T09:22:35;33.70;;;22.55;;
3443;SDS011;1736;52.068;6.968;2024-03-06T09:25:02;27.80;;;19.45;;
3443;SDS011;1736;52.068;6.968;2024-03-06T09:27:30;31.45;;;20.00;;
3443;SDS011;1736;52.068;6.968;2024-03-06T09:29:56;28.92;;;19.60;;
3443;SDS011;1736;52.068;6.968;2024-03-06T09:32:25;29.30;;;20.20;;
3443;SDS011;1736;52.068;6.968;2024-03-06T09:34:51;30.08;;;20.65;;
3443;SDS011;1736;52.068;6.968;2024-03-06T09:37:18;33.60;;;22.10;;
3443;SDS011;1736;52.068;6.968;2024-03-06T09:39:45;30.88;;;20.83;;
3443;SDS011;1736;52.068;6.968;2024-03-06T09:42:12;30.87;;;20.77;;
3443;SDS011;1736;52.068;6.968;2024-03-06T09:44:39;29.65;;;19.98;;
3443;SDS011;1736;52.068;6.968;2024-03-06T09:47:06;37.05;;;22.25;;
3443;SDS011;1736;52.068;6.968;2024-03-06T09:49:34;31.95;;;21.67;;
3443;SDS011;1736;52.068;6.968;2024-03-06T09:52:01;32.10;;;21.13;;
3443;SDS011;1736;52.068;6.968;2024-03-06T09:54:29;30.85;;;19.85;;
3443;SDS011;1736;52.068;6.968;2024-03-06T09:56:56;31.95;;;21.75;;
3443;SDS011;1736;52.068;6.968;2024-03-06T09:59:24;31.45;;;21.48;;
3443;SDS011;1736;52.068;6.968;2024-03-06T10:01:53;34.72;;;21.92;;
3443;SDS011;1736;52.068;6.968;2024-03-06T10:04:20;34.15;;;22.80;;
3443;SDS011;1736;52.068;6.968;2024-03-06T10:06:48;42.72;;;24.98;;
3443;SDS011;1736;52.068;6.968;2024-03-06T10:09:16;39.40;;;24.05;;
3443;SDS011;1736;52.068;6.968;2024-03-06T10:11:44;40.97;;;23.60;;
3443;SDS011;1736;52.068;6.968;2024-03-06T10:14:10;40.38;;;25.55;;
3443;SDS011;1736;52.068;6.968;2024-03-06T10:16:51;44.30;;;27.33;;
3443;SDS011;1736;52.068;6.968;2024-03-06T10:19:18;43.83;;;27.60;;
3443;SDS011;1736;52.068;6.968;2024-03-06T10:21:46;43.58;;;26.45;;
3443;SDS011;1736;52.068;6.968;2024-03-06T10:24:18;43.03;;;25.80;;
3443;SDS011;1736;52.068;6.968;2024-03-06T10:26:46;45.83;;;27.00;;
3443;SDS011;1736;52.068;6.968;2024-03-06T10:29:15;44.85;;;25.25;;
3443;SDS011;1736;52.068;6.968;2024-03-06T10:31:47;42.13;;;26.65;;
3443;SDS011;1736;52.068;6.968;2024-03-06T10:34:17;46.90;;;27.48;;
3443;SDS011;1736;52.068;6.968;2024-03-06T10:36:45;41.60;;;25.63;;
3443;SDS011;1736;52.068;6.968;2024-03-06T10:39:12;40.60;;;26.20;;
3443;SDS011;1736;52.068;6.968;2024-03-06T10:41:41;40.25;;;26.00;;
3443;SDS011;1736;52.068;6.968;2024-03-06T10:44:11;44.05;;;27.45;;
3443;SDS011;1736;52.068;6.968;2024-03-06T10:46:40;45.37;;;26.00;;
3443;SDS011;1736;52.068;6.968;2024-03-06T10:49:10;50.33;;;27.52;;
3443;SDS011;1736;52.068;6.968;2024-03-06T10:51:39;38.65;;;25.30;;
3443;SDS011;1736;52.068;6.968;2024-03-06T10:54:08;36.50;;;23.83;;
3443;SDS011;1736;52.068;6.968;2024-03-06T10:56:36;36.38;;;23.55;;
3443;SDS011;1736;52.068;6.968;2024-03-06T10:59:09;37.05;;;24.27;;
3443;SDS011;1736;52.068;6.968;2024-03-06T11:01:38;33.70;;;22.60;;
3443;SDS011;1736;52.068;6.968;2024-03-06T11:04:08;36.50;;;22.80;;
3443;SDS011;1736;52.068;6.968;2024-03-06T11:06:36;37.60;;;23.30;;
3443;SDS011;1736;52.068;6.968;2024-03-06T11:09:03;40.75;;;22.83;;
3443;SDS011;1736;52.068;6.968;2024-03-06T11:11:31;35.95;;;22.95;;
3443;SDS011;1736;52.068;6.968;2024-03-06T11:13:59;34.08;;;21.63;;
3443;SDS011;1736;52.068;6.968;2024-03-06T11:16:28;34.35;;;22.05;;
3443;SDS011;1736;52.068;6.968;2024-03-06T11:19:04;34.58;;;22.23;;
3443;SDS011;1736;52.068;6.968;2024-03-06T11:21:32;32.20;;;20.35;;
3443;SDS011;1736;52.068;6.968;2024-03-06T11:24:14;32.33;;;21.42;;
3443;SDS011;1736;52.068;6.968;2024-03-06T11:26:45;33.07;;;22.20;;
3443;SDS011;1736;52.068;6.968;2024-03-06T11:29:13;32.78;;;20.83;;
3443;SDS011;1736;52.068;6.968;2024-03-06T11:31:57;29.05;;;20.13;;
3443;SDS011;1736;52.068;6.968;2024-03-06T11:34:26;31.48;;;20.33;;
3443;SDS011;1736;52.068;6.968;2024-03-06T11:36:53;29.05;;;19.77;;
3443;SDS011;1736;52.068;6.968;2024-03-06T11:39:20;35.83;;;21.38;;
3443;SDS011;1736;52.068;6.968;2024-03-06T11:41:47;29.92;;;20.10;;
3443;SDS011;1736;52.068;6.968;2024-03-06T11:44:15;33.85;;;21.25;;
3443;SDS011;1736;52.068;6.968;2024-03-06T11:46:42;35.15;;;22.73;;
3443;SDS011;1736;52.068;6.968;2024-03-06T11:49:15;34.65;;;21.50;;
3443;SDS011;1736;52.068;6.968;2024-03-06T11:51:45;31.80;;;20.77;;
3443;SDS011;1736;52.068;6.968;2024-03-06T11:54:12;34.88;;;22.35;;
3443;SDS011;1736;52.068;6.968;2024-03-06T11:56:39;38.13;;;23.70;;
3443;SDS011;1736;52.068;6.968;2024-03-06T11:59:06;39.38;;;24.70;;
3443;SDS011;1736;52.068;6.968;2024-03-06T12:01:34;36.90;;;23.67;;
3443;SDS011;1736;52.068;6.968;2024-03-06T12:04:01;38.15;;;23.40;;
3443;SDS011;1736;52.068;6.968;2024-03-06T12:06:31;36.08;;;22.23;;
3443;SDS011;1736;52.068;6.968;2024-03-06T12:08:59;39.50;;;23.20;;
3443;SDS011;1736;52.068;6.968;2024-03-06T12:11:26;35.65;;;22.08;;
3443;SDS011;1736;52.068;6.968;2024-03-06T12:13:53;33.55;;;20.30;;
3443;SDS011;1736;52.068;6.968;2024-03-06T12:16:20;33.72;;;22.02;;
3443;SDS011;1736;52.068;6.968;2024-03-06T12:18:53;33.47;;;20.45;;
3443;SDS011;1736;52.068;6.968;2024-03-06T12:21:22;32.97;;;21.08;;
3443;SDS011;1736;52.068;6.968;2024-03-06T12:23:50;32.67;;;20.25;;
3443;SDS011;1736;52.068;6.968;2024-03-06T12:26:28;30.70;;;19.80;;
3443;SDS011;1736;52.068;6.968;2024-03-06T12:29:03;31.92;;;21.25;;
3443;SDS011;1736;52.068;6.968;2024-03-06T12:31:30;32.58;;;20.05;;
3443;SDS011;1736;52.068;6.968;2024-03-06T12:33:58;31.20;;;20.48;;
3443;SDS011;1736;52.068;6.968;2024-03-06T12:36:26;31.73;;;19.98;;
3443;SDS011;1736;52.068;6.968;2024-03-06T12:38:56;35.35;;;22.33;;
3443;SDS011;1736;52.068;6.968;2024-03-06T12:41:25;36.85;;;23.58;;
3443;SDS011;1736;52.068;6.968;2024-03-06T12:43:53;36.88;;;22.58;;
3443;SDS011;1736;52.068;6.968;2024-03-06T12:46:20;35.42;;;21.90;;
3443;SDS011;1736;52.068;6.968;2024-03-06T12:48:47;36.00;;;22.55;;
3443;SDS011;1736;52.068;6.968;2024-03-06T12:51:13;36.67;;;21.42;;
3443;SDS011;1736;52.068;6.968;2024-03-06T12:53:40;34.00;;;22.27;;
3443;SDS011;1736;52.068;6.968;2024-03-06T12:56:08;37.50;;;21.95;;
3443;SDS011;1736;52.068;6.968;2024-03-06T12:58:35;41.15;;;23.70;;
3443;SDS011;1736;52.068;6.968;2024-03-06T13:01:02;41.88;;;24.63;;
3443;SDS011;1736;52.068;6.968;2024-03-06T13:03:29;38.35;;;22.88;;
3443;SDS011;1736;52.068;6.968;2024-03-06T13:05:56;37.97;;;22.70;;
3443;SDS011;1736;52.068;6.968;2024-03-06T13:08:22;35.85;;;21.98;;
3443;SDS011;1736;52.068;6.968;2024-03-06T13:10:49;38.20;;;22.00;;
3443;SDS011;1736;52.068;6.968;2024-03-06T13:13:17;38.22;;;22.10;;
3443;SDS011;1736;52.068;6.968;2024-03-06T13:15:43;34.60;;;21.30;;
3443;SDS011;1736;52.068;6.968;2024-03-06T13:18:13;34.88;;;21.83;;
3443;SDS011;1736;52.068;6.968;2024-03-06T13:20:40;35.33;;;21.42;;
3443;SDS011;1736;52.068;6.968;2024-03-06T13:23:07;41.70;;;21.07;;
3443;SDS011;1736;52.068;6.968;2024-03-06T13:25:34;36.33;;;21.70;;
3443;SDS011;1736;52.068;6.968;2024-03-06T13:28:01;32.28;;;20.13;;
3443;SDS011;1736;52.068;6.968;2024-03-06T13:30:29;35.58;;;21.83;;
3443;SDS011;1736;52.068;6.968;2024-03-06T13:32:55;32.58;;;21.30;;
3443;SDS011;1736;52.068;6.968;2024-03-06T13:35:22;33.67;;;21.10;;
3443;SDS011;1736;52.068;6.968;2024-03-06T13:37:48;31.60;;;20.02;;
3443;SDS011;1736;52.068;6.968;2024-03-06T13:40:15;35.67;;;20.87;;
3443;SDS011;1736;52.068;6.968;2024-03-06T13:42:42;32.92;;;21.13;;
3443;SDS011;1736;52.068;6.968;2024-03-06T13:45:09;31.45;;;20.67;;
3443;SDS011;1736;52.068;6.968;2024-03-06T13:47:39;34.83;;;20.20;;
3443;SDS011;1736;52.068;6.968;2024-03-06T13:50:07;30.17;;;19.60;;
3443;SDS011;1736;52.068;6.968;2024-03-06T13:52:34;31.73;;;19.92;;
3443;SDS011;1736;52.068;6.968;2024-03-06T13:55:01;31.55;;;18.88;;
3443;SDS011;1736;52.068;6.968;2024-03-06T13:57:29;30.58;;;19.00;;
3443;SDS011;1736;52.068;6.968;2024-03-06T13:59:58;33.03;;;19.43;;
3443;SDS011;1736;52.068;6.968;2024-03-06T14:02:25;30.30;;;18.85;;
3443;SDS011;1736;52.068;6.968;2024-03-06T14:04:53;31.65;;;19.02;;
3443;SDS011;1736;52.068;6.968;2024-03-06T14:07:19;31.13;;;19.10;;
3443;SDS011;1736;52.068;6.968;2024-03-06T14:09:46;29.05;;;19.80;;
3443;SDS011;1736;52.068;6.968;2024-03-06T14:12:12;29.40;;;18.00;;
3443;SDS011;1736;52.068;6.968;2024-03-06T14:14:39;29.30;;;18.50;;
3443;SDS011;1736;52.068;6.968;2024-03-06T14:17:06;33.90;;;21.30;;
3443;SDS011;1736;52.068;6.968;2024-03-06T14:19:32;30.45;;;20.00;;
3443;SDS011;1736;52.068;6.968;2024-03-06T14:22:00;33.15;;;19.15;;
3443;SDS011;1736;52.068;6.968;2024-03-06T14:24:27;31.38;;;19.92;;
3443;SDS011;1736;52.068;6.968;2024-03-06T14:26:53;29.90;;;18.85;;
3443;SDS011;1736;52.068;6.968;2024-03-06T14:29:20;29.23;;;18.77;;
3443;SDS011;1736;52.068;6.968;2024-03-06T14:31:47;31.80;;;19.25;;
3443;SDS011;1736;52.068;6.968;2024-03-06T14:34:13;31.27;;;19.40;;
3443;SDS011;1736;52.068;6.968;2024-03-06T14:36:40;28.52;;;19.20;;
3443;SDS011;1736;52.068;6.968;2024-03-06T14:39:08;30.42;;;19.15;;
3443;SDS011;1736;52.068;6.968;2024-03-06T14:41:36;30.70;;;19.05;;
3443;SDS011;1736;52.068;6.968;2024-03-06T14:44:03;31.60;;;19.60;;
3443;SDS011;1736;52.068;6.968;2024-03-06T14:46:29;29.27;;;18.98;;
3443;SDS011;1736;52.068;6.968;2024-03-06T14:48:56;30.55;;;19.95;;
3443;SDS011;1736;52.068;6.968;2024-03-06T14:51:23;30.60;;;19.60;;
3443;SDS011;1736;52.068;6.968;2024-03-06T14:53:49;32.05;;;19.60;;
3443;SDS011;1736;52.068;6.968;2024-03-06T14:56:17;29.30;;;18.50;;
3443;SDS011;1736;52.068;6.968;2024-03-06T14:58:46;30.67;;;19.13;;
3443;SDS011;1736;52.068;6.968;2024-03-06T15:01:13;26.52;;;17.73;;
3443;SDS011;1736;52.068;6.968;2024-03-06T15:03:40;24.70;;;16.85;;
3443;SDS011;1736;52.068;6.968;2024-03-06T15:06:06;27.42;;;17.40;;